Disclaimer

Please do not use the information listed here in-flight or in-navigation, as they are not provided to us by the airports but are provided by volunteers, so they might be outdated.

Search


Regions


Airport information page

Radio informations:
Tower (TWR) - 124.1 MHz
Approach (APP) - 122.5 MHz

Airport informations:
Latitude: 38° 08' 02.00" N
Longitude: 046° 14' 06.00" E
Elevation: 4459 feet - 1359 meters
Operating hours: 24 hour operations
Operating agency: Military-civil joint use airport
Timezone: UTC+3:30
Fuel: JP-4, Wide cut turbine fuel MIL Spec T-5624

Jet A1, without icing nhibitor.

100/130 MIL Spec, low lead, aviation gasoline (BLUE)

Runway information:
12R/30L - 11537 x 98 feet< - >3516 x 30 meters
12L/30R - 11825 x 148 feet< - >3604 x 45 meters

Recent METARs:
OITT 210000Z 06006KT 9999 FEW040 SCT180 02/M03 Q1019 A3011
OITT 210030Z 06006KT 9999 FEW040 SCT180 02/M03 Q1019 A3011
OITT 210100Z 06006KT 9999 FEW040 SCT180 02/M03 Q1019 A3011

Airport on the map: